Monroe, NC

7:07 PM EDT en Octubre 24, 2014 (GMT -0400)
Lake Park | Change Station
CLOSE
Current Station
Estación meteorológica personal
Location: Indian Trail, NC
Altura: 640 ft
Estaciones meteorológicas cercanas

Alt 640 ft 35.09 °N, 80.63 °W | Updated 19 seconds ago

Muy nublado
Muy nublado
61.7 ° F
Sensación térmica 61.7 ° F
N
0.0
Viento Variable Viento desde Oeste
Gusts 0.0 mph

Hoy
Alta -- | Baja -- ° F
--% Posibilidad de precipitaciones
Ayer
Alta -- | Baja -- ° F
Precip. -- pul
7:36 AM 6:36 PM
Luna nueva, 1% visible
Presión 30.01 pul
Visibilidad 10.0 Millas
Nubes Despejado
Punto de rocío 49 ° F
Humedad 63%
Precipitaciones 0.00 pul
Espesor de la nieve No disponible.
UV 0 de una escala de 12
Polen 2.70 de una escala de 12
Ozono Buena
PM2.5 Buena
Flu Activity Sporadic
METAR KEQY 242253Z AUTO 00000KT 10SM CLR 16/08 A2998 RMK AO2 SLP162 T01560083

More Conditions Fewer Conditions

Presión 30.01 pul
Visibilidad 10.0 Millas
Nubes Despejado
Punto de rocío 49 ° F
Humedad 63%
Precipitaciones 0.00 pul
Espesor de la nieve No disponible.
UV 0 de una escala de 12
Polen 2.70 de una escala de 12
Ozono Buena
PM2.5 Buena
Flu Activity Sporadic
METAR KEQY 242253Z AUTO 00000KT 10SM CLR 16/08 A2998 RMK AO2 SLP162 T01560083

More Conditions Fewer Conditions

10-Day Weather Forecast

Almanac

Astronomía

Oct. 24, 2014 Salida Puesta
Hora real 7:36 AM EDT 6:36 PM EDT
Crepúsculo civil 7:10 AM EDT 7:02 PM EDT
Crepúsculo náutico 6:40 AM EDT 7:32 PM EDT
Crepúsculo astronómico 6:11 AM EDT 8:01 PM EDT
Luna 8:12 AM EDT 7:17 PM EDT
Horas de luz 11h 51m
Horas de luz
11h 00m
Tomorrow will be 2m 1s shorter.
Luna nueva, 1% of the Moon is Illuminated
Hoy
Luna nueva
Oct 30
Cuarto creciente
Nov 6
Luna llena
Nov 14
Cuarto menguante
Nov 22
Nueva

Extremos de hoy

Máximos del estado Bajos del estado

Community

WunderPhotos

Upload Photos

1,764,705 ¡fotos cargadas!

Nearby

Calidad del aire

  Calidad del aire Índice AQ Contaminante
Ayer Buena
PM2.5
Ayer Buena
OZONE
Real Buena
PM2.5
Real Buena
OZONE
Viernes Buena
PM2.5
Viernes Buena
OZONE
Sábado Moderada
PM2.5
Sábado Buena
OZONE
Domingo Buena
OZONE
Domingo Buena
PM2.5
Lunes Buena
OZONE
Lunes Buena
PM2.5

Grosos de nieve

Estación Profundido Altura
No tenemos constancia de nieve nueva.

Actividad de terremotos

Ciudad Distance Mag. Tiempo y dato
No hay informes recientes de la actividad sísmica.
Magnitud mínima muestra es 2,5.

Temperaturas de aguas costeras

Lugar Temperatura
Sin partes meteorológicos de las estaciones

Estaciones meteorológicas cercanas